createdAt,value
2019-02-23T00:01:21.504Z,66.3
2019-02-23T00:06:28.906Z,65.8
2019-02-23T00:11:15.340Z,65.6
2019-02-23T00:16:12.030Z,65.4
2019-02-23T00:21:08.823Z,61.8
2019-02-23T00:26:05.387Z,59.1
2019-02-23T00:31:02.014Z,60
2019-02-23T00:35:58.776Z,58.1
2019-02-23T00:40:55.461Z,58.5
2019-02-23T00:45:52.118Z,57.5
2019-02-23T00:50:48.755Z,57
2019-02-23T00:55:45.763Z,56
2019-02-23T01:00:42.552Z,56.1
2019-02-23T01:05:39.259Z,55.4
2019-02-23T01:10:35.851Z,55.3
2019-02-23T01:20:29.350Z,54.4
2019-02-23T01:25:25.754Z,53.4
2019-02-23T01:30:22.431Z,52.4
2019-02-23T01:35:19.181Z,53.5
2019-02-23T01:40:15.920Z,54.3
2019-02-23T01:45:12.592Z,57.5
2019-02-23T01:50:09.236Z,56.4
2019-02-23T01:55:06.206Z,57.8
2019-02-23T02:04:59.740Z,57.7
2019-02-23T02:09:56.659Z,58.7
2019-02-23T02:14:53.705Z,57.5
2019-02-23T02:19:50.374Z,58.9
2019-02-23T02:24:46.802Z,57.8
2019-02-23T02:29:43.762Z,57.6
2019-02-23T02:34:40.482Z,56.9
2019-02-23T02:39:37.191Z,56.4
2019-02-23T02:44:34.196Z,57
2019-02-23T02:49:30.906Z,58
2019-02-23T02:54:27.608Z,57.9
2019-02-23T02:59:24.350Z,58.3
2019-02-23T03:04:21.202Z,57.9
2019-02-23T03:09:17.744Z,57.2
2019-02-23T03:14:14.551Z,57
2019-02-23T03:19:11.391Z,57
2019-02-23T03:24:08.173Z,57.3
2019-02-23T03:29:04.802Z,57.8
2019-02-23T03:34:01.821Z,57.1
2019-02-23T03:38:58.545Z,57.7
2019-02-23T03:43:55.239Z,58.2
2019-02-23T03:48:52.165Z,58.3
2019-02-23T03:53:48.858Z,57.5
2019-02-23T03:58:45.562Z,57.5
2019-02-23T04:03:42.407Z,56.3
2019-02-23T04:08:39.216Z,53.5
2019-02-23T04:13:36.199Z,54.6
2019-02-23T04:18:33.323Z,57.3
2019-02-23T04:23:30.203Z,58.9
2019-02-23T04:28:27.011Z,58.1
2019-02-23T04:33:23.761Z,57.5
2019-02-23T04:38:20.237Z,57.9
2019-02-23T04:43:17.228Z,57.3
2019-02-23T04:53:10.866Z,57.4
2019-02-23T04:58:07.679Z,57
2019-02-23T05:03:04.574Z,55.8
2019-02-23T05:08:01.212Z,54.6
2019-02-23T05:12:58.387Z,53.5
2019-02-23T05:17:55.635Z,54.6
2019-02-23T05:22:52.691Z,54.9
2019-02-23T05:27:49.095Z,55.6
2019-02-23T05:32:46.482Z,53.7
2019-02-23T05:37:43.313Z,51.1
2019-02-23T05:42:40.800Z,52.3
2019-02-23T05:47:37.425Z,52.7
2019-02-23T05:52:34.132Z,53
2019-02-23T05:57:31.050Z,52.3
2019-02-23T06:02:27.118Z,52
2019-02-23T06:07:23.844Z,50.7
2019-02-23T06:12:22.377Z,50.6
2019-02-23T06:17:18.760Z,50.3
2019-02-23T06:22:15.352Z,50.9
2019-02-23T06:27:12.348Z,50.4
2019-02-23T06:32:09.799Z,50.1
2019-02-23T06:37:06.475Z,50.7
2019-02-23T06:42:03.034Z,50.6
2019-02-23T06:46:59.651Z,49.6
2019-02-23T06:52:03.921Z,49.5
2019-02-23T06:56:53.489Z,48.3
2019-02-23T07:01:50.177Z,48.2
2019-02-23T07:06:46.938Z,48.8
2019-02-23T07:11:43.855Z,47.7
2019-02-23T07:16:40.505Z,48.1
2019-02-23T07:21:37.362Z,47.2
2019-02-23T07:26:34.526Z,47.1
2019-02-23T07:31:31.075Z,47.6
2019-02-23T07:36:27.729Z,47.5
2019-02-23T07:41:24.627Z,47.7
2019-02-23T07:46:21.510Z,48.8
2019-02-23T07:51:18.354Z,46.3
2019-02-23T07:56:15.821Z,47.9
2019-02-23T08:01:12.449Z,46.6
2019-02-23T08:06:09.071Z,46.1
2019-02-23T08:11:05.997Z,46.9
2019-02-23T08:16:02.829Z,48.9
2019-02-23T08:20:59.438Z,49
2019-02-23T08:25:55.999Z,49.8
2019-02-23T08:30:52.957Z,48.5
2019-02-23T08:35:49.657Z,45.8
2019-02-23T08:40:46.585Z,45.4
2019-02-23T08:45:43.511Z,45.9
2019-02-23T08:50:40.672Z,46.8
2019-02-23T08:55:37.662Z,45.4
2019-02-23T09:00:34.370Z,46.7
2019-02-23T09:05:31.251Z,46
2019-02-23T09:10:28.147Z,44.6
2019-02-23T09:15:24.568Z,45.1
2019-02-23T09:20:28.495Z,44
2019-02-23T09:25:18.174Z,44
2019-02-23T09:30:15.070Z,44.1
2019-02-23T09:35:12.067Z,45.2
2019-02-23T09:40:08.961Z,44.9
2019-02-23T09:45:05.854Z,43.5
2019-02-23T09:50:02.700Z,44
2019-02-23T09:54:59.548Z,45.4
2019-02-23T09:59:56.278Z,45
2019-02-23T10:04:52.926Z,43.8
2019-02-23T10:09:49.767Z,44.5
2019-02-23T10:14:45.887Z,43.4
2019-02-23T10:19:41.556Z,43.6
2019-02-23T10:24:38.156Z,43.9
2019-02-23T10:29:34.611Z,43.8
2019-02-23T10:34:31.389Z,44
2019-02-23T10:39:28.182Z,43.3
2019-02-23T10:44:25.021Z,42.7
2019-02-23T10:49:21.713Z,41.2
2019-02-23T10:54:18.594Z,43.3
2019-02-23T10:59:15.450Z,41.8
2019-02-23T11:04:12.086Z,41.3
2019-02-23T11:09:08.854Z,42.5
2019-02-23T11:14:05.656Z,41.6
2019-02-23T11:19:02.545Z,42.2
2019-02-23T11:23:59.548Z,42.6
2019-02-23T11:28:56.484Z,41.5
2019-02-23T11:33:53.449Z,41.6
2019-02-23T11:38:50.439Z,41.7
2019-02-23T11:43:47.329Z,39.9
2019-02-23T11:48:44.057Z,38.8
2019-02-23T11:53:41.060Z,40.5
2019-02-23T11:58:38.073Z,39.4
2019-02-23T12:03:35.135Z,40.5
2019-02-23T12:08:31.946Z,40.3
2019-02-23T12:13:29.146Z,40.4
2019-02-23T12:18:26.162Z,40.1
2019-02-23T12:23:22.979Z,41
2019-02-23T12:28:19.929Z,40.6
2019-02-23T12:33:16.862Z,40.6
2019-02-23T12:38:13.528Z,39.7
2019-02-23T12:43:10.434Z,40.1
2019-02-23T12:48:07.475Z,39
2019-02-23T12:53:04.325Z,40
2019-02-23T12:58:00.321Z,40.3
2019-02-23T13:02:57.466Z,39.3
2019-02-23T13:07:54.728Z,40
2019-02-23T13:12:51.393Z,40.9
2019-02-23T13:17:48.266Z,39.7
2019-02-23T13:22:44.978Z,39.9
2019-02-23T13:27:41.596Z,40.2
2019-02-23T13:32:38.465Z,40.4
2019-02-23T13:37:35.319Z,40.1
2019-02-23T13:42:32.270Z,39.9
2019-02-23T13:47:29.438Z,40.7
2019-02-23T13:52:25.814Z,40
2019-02-23T13:57:22.570Z,39.3
2019-02-23T14:02:19.435Z,39.6
2019-02-23T14:07:16.467Z,39.5
2019-02-23T14:12:13.467Z,39.1
2019-02-23T14:17:10.645Z,39.2
2019-02-23T14:22:07.116Z,39.6
2019-02-23T14:27:03.822Z,39.6
2019-02-23T14:32:00.548Z,38.7
2019-02-23T14:36:57.737Z,39.5
2019-02-23T14:41:54.225Z,39
2019-02-23T14:46:51.137Z,39.9
2019-02-23T14:51:48.002Z,40.4
2019-02-23T14:56:44.700Z,39.8
2019-02-23T15:01:43.305Z,39.7
2019-02-23T15:06:38.052Z,40.2
2019-02-23T15:11:34.915Z,40.6
2019-02-23T15:16:31.735Z,40.8
2019-02-23T15:21:28.665Z,40.6
2019-02-23T15:26:24.750Z,40.8
2019-02-23T15:31:21.617Z,41.2
2019-02-23T15:36:18.483Z,44.5
2019-02-23T15:41:15.311Z,41.5
2019-02-23T15:46:12.446Z,41.1
2019-02-23T15:51:08.933Z,41
2019-02-23T15:56:06.230Z,40.8
2019-02-23T16:01:02.817Z,40.5
2019-02-23T16:05:59.500Z,40.7
2019-02-23T16:10:56.573Z,42.2
2019-02-23T16:15:53.453Z,41.7
2019-02-23T16:20:50.128Z,41.8
2019-02-23T16:25:47.070Z,41.9
2019-02-23T16:30:44.034Z,41.9
2019-02-23T16:35:40.888Z,41.9
2019-02-23T16:40:37.640Z,41.5
2019-02-23T16:45:34.412Z,42.3
2019-02-23T16:50:31.000Z,41.3
2019-02-23T16:55:27.320Z,42
2019-02-23T17:00:24.141Z,41.6
2019-02-23T17:05:20.950Z,41.7
2019-02-23T17:10:17.893Z,42.1
2019-02-23T17:15:14.698Z,42.2
2019-02-23T17:20:11.521Z,42.7
2019-02-23T17:25:07.955Z,42.1
2019-02-23T17:30:04.916Z,42.7
2019-02-23T17:35:01.494Z,41.5
2019-02-23T17:39:58.316Z,42.1
2019-02-23T17:44:55.500Z,42.6
2019-02-23T17:49:52.371Z,43
2019-02-23T17:54:49.559Z,43.7
2019-02-23T17:59:46.459Z,44.3
2019-02-23T18:04:42.995Z,44.6
2019-02-23T18:09:39.964Z,44.2
2019-02-23T18:14:36.809Z,44.4
2019-02-23T18:19:33.698Z,44
2019-02-23T18:24:30.431Z,44.3
2019-02-23T18:29:27.236Z,44.5
2019-02-23T18:34:23.967Z,44.8
2019-02-23T18:39:20.796Z,44.4
2019-02-23T18:44:17.464Z,45.5
2019-02-23T18:49:14.180Z,44.8
2019-02-23T18:54:11.086Z,45
2019-02-23T18:59:07.766Z,44.6
2019-02-23T19:04:04.123Z,44.2
2019-02-23T19:09:00.896Z,44.8
2019-02-23T19:13:58.005Z,44
2019-02-23T19:18:55.009Z,43.3
2019-02-23T19:23:52.008Z,43.3
2019-02-23T19:28:48.815Z,44.1
2019-02-23T19:33:45.572Z,43.5
2019-02-23T19:38:42.293Z,44.7
2019-02-23T19:43:38.757Z,43.3
2019-02-23T19:48:35.725Z,44.1
2019-02-23T19:53:33.215Z,43.5
2019-02-23T19:58:29.532Z,44.1
2019-02-23T20:03:26.507Z,43.7
2019-02-23T20:08:22.742Z,43.7
2019-02-23T20:13:19.220Z,44
2019-02-23T20:18:16.027Z,44
2019-02-23T20:23:13.732Z,43.9
2019-02-23T20:28:10.592Z,43.4
2019-02-23T20:33:07.544Z,44.4
2019-02-23T20:38:04.221Z,44
2019-02-23T20:43:00.894Z,44
2019-02-23T20:47:57.666Z,44.2
2019-02-23T20:52:54.743Z,44.3
2019-02-23T20:57:51.643Z,43.8
2019-02-23T21:02:48.539Z,44.3
2019-02-23T21:07:45.282Z,44.1
2019-02-23T21:12:41.980Z,44.8
2019-02-23T21:17:38.852Z,44.4
2019-02-23T21:22:35.700Z,44.7
2019-02-23T21:27:32.498Z,44.5
2019-02-23T21:32:29.161Z,44.5
2019-02-23T21:37:25.921Z,44.6
2019-02-23T21:42:22.721Z,44.2
2019-02-23T21:47:19.681Z,44.4
2019-02-23T21:52:16.498Z,44.3
2019-02-23T21:57:21.686Z,44.6
2019-02-23T22:02:09.883Z,44.5
2019-02-23T22:07:06.583Z,45.1
2019-02-23T22:12:03.501Z,44.9
2019-02-23T22:17:00.283Z,44.1
2019-02-23T22:21:57.115Z,44.7
2019-02-23T22:26:53.893Z,44.5
2019-02-23T22:31:50.854Z,44.1
2019-02-23T22:36:47.497Z,43.6
2019-02-23T22:41:49.542Z,44.6
2019-02-23T22:46:41.187Z,44.5
2019-02-23T22:51:38.283Z,45
2019-02-23T22:56:35.090Z,45.4
2019-02-23T23:01:31.953Z,45.3
2019-02-23T23:06:28.559Z,45.3
2019-02-23T23:11:25.280Z,45.9
2019-02-23T23:16:22.058Z,46
2019-02-23T23:21:18.242Z,46.3
2019-02-23T23:26:15.006Z,46.2
2019-02-23T23:31:11.363Z,46.2
2019-02-23T23:36:08.262Z,45.9
2019-02-23T23:41:04.889Z,45.8
2019-02-23T23:46:01.605Z,45.9
2019-02-23T23:50:58.667Z,45.9
2019-02-23T23:55:55.482Z,45.9
